sensor_id;sensor_type;location;lat;lon;timestamp;pressure;altitude;pressure_sealevel;temperature;humidity
56681;BME280;42558;52.388;13.390;2023-11-21T00:00:19;100330.78;;;7.34;100.00
56681;BME280;42558;52.388;13.390;2023-11-21T00:02:47;100336.44;;;7.36;100.00
56681;BME280;42558;52.388;13.390;2023-11-21T00:05:16;100335.00;;;7.35;100.00
56681;BME280;42558;52.388;13.390;2023-11-21T00:07:44;100336.09;;;7.36;100.00
56681;BME280;42558;52.388;13.390;2023-11-21T00:10:13;100337.88;;;7.39;100.00
56681;BME280;42558;52.388;13.390;2023-11-21T00:12:44;100339.60;;;7.38;100.00
56681;BME280;42558;52.388;13.390;2023-11-21T00:15:14;100343.27;;;7.37;100.00
56681;BME280;42558;52.388;13.390;2023-11-21T00:17:45;100340.08;;;7.35;100.00
56681;BME280;42558;52.388;13.390;2023-11-21T00:20:16;100348.17;;;7.37;100.00
56681;BME280;42558;52.388;13.390;2023-11-21T00:22:46;100350.62;;;7.37;100.00
56681;BME280;42558;52.388;13.390;2023-11-21T00:25:16;100354.31;;;7.38;100.00
56681;BME280;42558;52.388;13.390;2023-11-21T00:27:47;100352.36;;;7.37;100.00
56681;BME280;42558;52.388;13.390;2023-11-21T00:30:17;100348.55;;;7.40;100.00
56681;BME280;42558;52.388;13.390;2023-11-21T00:32:47;100349.95;;;7.39;100.00
56681;BME280;42558;52.388;13.390;2023-11-21T00:35:17;100351.17;;;7.40;100.00
56681;BME280;42558;52.388;13.390;2023-11-21T00:37:47;100356.96;;;7.41;100.00
56681;BME280;42558;52.388;13.390;2023-11-21T00:40:19;100357.95;;;7.37;100.00
56681;BME280;42558;52.388;13.390;2023-11-21T00:42:50;100363.21;;;7.29;100.00
56681;BME280;42558;52.388;13.390;2023-11-21T00:45:19;100369.67;;;7.20;100.00
56681;BME280;42558;52.388;13.390;2023-11-21T00:47:47;100375.55;;;7.01;100.00
56681;BME280;42558;52.388;13.390;2023-11-21T00:50:16;100377.35;;;6.87;100.00
56681;BME280;42558;52.388;13.390;2023-11-21T00:52:44;100375.83;;;6.73;100.00
56681;BME280;42558;52.388;13.390;2023-11-21T00:55:13;100380.08;;;6.69;100.00
56681;BME280;42558;52.388;13.390;2023-11-21T00:57:41;100379.77;;;6.56;100.00
56681;BME280;42558;52.388;13.390;2023-11-21T01:00:10;100385.84;;;6.53;100.00
56681;BME280;42558;52.388;13.390;2023-11-21T01:02:46;100388.52;;;6.48;100.00
56681;BME280;42558;52.388;13.390;2023-11-21T01:05:18;100389.08;;;6.36;100.00
56681;BME280;42558;52.388;13.390;2023-11-21T01:07:49;100396.81;;;6.31;100.00
56681;BME280;42558;52.388;13.390;2023-11-21T01:10:20;100398.38;;;6.24;100.00
56681;BME280;42558;52.388;13.390;2023-11-21T01:12:50;100398.10;;;6.20;100.00
56681;BME280;42558;52.388;13.390;2023-11-21T01:15:20;100400.73;;;6.20;100.00
56681;BME280;42558;52.388;13.390;2023-11-21T01:17:50;100411.38;;;6.13;100.00
56681;BME280;42558;52.388;13.390;2023-11-21T01:20:20;100415.19;;;6.06;100.00
56681;BME280;42558;52.388;13.390;2023-11-21T01:22:50;100414.98;;;6.04;100.00
56681;BME280;42558;52.388;13.390;2023-11-21T01:25:20;100419.41;;;6.00;100.00
56681;BME280;42558;52.388;13.390;2023-11-21T01:27:50;100418.89;;;5.94;100.00
56681;BME280;42558;52.388;13.390;2023-11-21T01:30:20;100421.98;;;5.87;100.00
56681;BME280;42558;52.388;13.390;2023-11-21T01:32:51;100426.68;;;5.87;100.00
56681;BME280;42558;52.388;13.390;2023-11-21T01:35:21;100433.57;;;5.77;100.00
56681;BME280;42558;52.388;13.390;2023-11-21T01:37:51;100432.73;;;5.65;100.00
56681;BME280;42558;52.388;13.390;2023-11-21T01:40:21;100433.96;;;5.66;100.00
56681;BME280;42558;52.388;13.390;2023-11-21T01:42:53;100436.42;;;5.54;100.00
56681;BME280;42558;52.388;13.390;2023-11-21T01:45:23;100436.67;;;5.56;100.00
56681;BME280;42558;52.388;13.390;2023-11-21T01:47:55;100436.20;;;5.53;100.00
56681;BME280;42558;52.388;13.390;2023-11-21T01:50:26;100441.96;;;5.59;100.00
56681;BME280;42558;52.388;13.390;2023-11-21T01:52:58;100446.75;;;5.55;100.00
56681;BME280;42558;52.388;13.390;2023-11-21T01:55:28;100452.17;;;5.44;100.00
56681;BME280;42558;52.388;13.390;2023-11-21T01:58:00;100450.17;;;5.29;100.00
56681;BME280;42558;52.388;13.390;2023-11-21T02:00:30;100452.02;;;5.27;100.00
56681;BME280;42558;52.388;13.390;2023-11-21T02:03:00;100456.64;;;5.18;100.00
56681;BME280;42558;52.388;13.390;2023-11-21T02:05:31;100461.20;;;5.19;100.00
56681;BME280;42558;52.388;13.390;2023-11-21T02:08:02;100460.86;;;5.20;100.00
56681;BME280;42558;52.388;13.390;2023-11-21T02:10:32;100469.98;;;5.15;100.00
56681;BME280;42558;52.388;13.390;2023-11-21T02:13:03;100467.27;;;5.18;100.00
56681;BME280;42558;52.388;13.390;2023-11-21T02:15:33;100470.99;;;5.20;100.00
56681;BME280;42558;52.388;13.390;2023-11-21T02:18:01;100468.33;;;5.24;100.00
56681;BME280;42558;52.388;13.390;2023-11-21T02:20:30;100478.31;;;5.26;100.00
56681;BME280;42558;52.388;13.390;2023-11-21T02:22:58;100481.09;;;5.14;100.00
56681;BME280;42558;52.388;13.390;2023-11-21T02:25:29;100480.08;;;5.09;100.00
56681;BME280;42558;52.388;13.390;2023-11-21T02:28:01;100482.67;;;5.09;100.00
56681;BME280;42558;52.388;13.390;2023-11-21T02:30:31;100484.98;;;5.10;100.00
56681;BME280;42558;52.388;13.390;2023-11-21T02:33:02;100490.05;;;5.00;100.00
56681;BME280;42558;52.388;13.390;2023-11-21T02:35:32;100484.62;;;4.94;100.00
56681;BME280;42558;52.388;13.390;2023-11-21T02:38:02;100490.33;;;4.98;100.00
56681;BME280;42558;52.388;13.390;2023-11-21T02:40:32;100496.79;;;4.98;100.00
56681;BME280;42558;52.388;13.390;2023-11-21T02:43:02;100495.16;;;4.91;100.00
56681;BME280;42558;52.388;13.390;2023-11-21T02:45:32;100499.16;;;4.91;100.00
56681;BME280;42558;52.388;13.390;2023-11-21T02:48:03;100500.22;;;4.86;100.00
56681;BME280;42558;52.388;13.390;2023-11-21T02:50:34;100501.51;;;4.82;100.00
56681;BME280;42558;52.388;13.390;2023-11-21T02:53:05;100495.72;;;4.86;100.00
56681;BME280;42558;52.388;13.390;2023-11-21T02:55:35;100503.20;;;4.81;100.00
56681;BME280;42558;52.388;13.390;2023-11-21T02:58:05;100499.92;;;4.82;100.00
56681;BME280;42558;52.388;13.390;2023-11-21T03:00:36;100505.04;;;4.79;100.00
56681;BME280;42558;52.388;13.390;2023-11-21T03:03:06;100501.88;;;4.83;100.00
56681;BME280;42558;52.388;13.390;2023-11-21T03:05:35;100506.95;;;4.79;100.00
56681;BME280;42558;52.388;13.390;2023-11-21T03:08:06;100507.50;;;4.75;100.00
56681;BME280;42558;52.388;13.390;2023-11-21T03:10:36;100510.04;;;4.77;100.00
56681;BME280;42558;52.388;13.390;2023-11-21T03:13:05;100513.48;;;4.76;100.00
56681;BME280;42558;52.388;13.390;2023-11-21T03:15:33;100520.00;;;4.79;100.00
56681;BME280;42558;52.388;13.390;2023-11-21T03:18:02;100516.44;;;4.71;100.00
56681;BME280;42558;52.388;13.390;2023-11-21T03:20:30;100522.44;;;4.62;100.00
56681;BME280;42558;52.388;13.390;2023-11-21T03:22:58;100518.64;;;4.63;100.00
56681;BME280;42558;52.388;13.390;2023-11-21T03:25:27;100526.61;;;4.62;100.00
56681;BME280;42558;52.388;13.390;2023-11-21T03:27:55;100535.32;;;4.52;100.00
56681;BME280;42558;52.388;13.390;2023-11-21T03:30:24;100539.30;;;4.51;100.00
56681;BME280;42558;52.388;13.390;2023-11-21T03:32:52;100542.96;;;4.52;100.00
56681;BME280;42558;52.388;13.390;2023-11-21T03:35:21;100551.67;;;4.52;100.00
56681;BME280;42558;52.388;13.390;2023-11-21T03:37:49;100554.23;;;4.46;100.00
56681;BME280;42558;52.388;13.390;2023-11-21T03:40:17;100557.75;;;4.42;100.00
56681;BME280;42558;52.388;13.390;2023-11-21T03:42:46;100554.09;;;4.41;100.00
56681;BME280;42558;52.388;13.390;2023-11-21T03:45:15;100553.38;;;4.36;100.00
56681;BME280;42558;52.388;13.390;2023-11-21T03:47:44;100557.27;;;4.43;100.00
56681;BME280;42558;52.388;13.390;2023-11-21T03:50:11;100564.32;;;4.40;100.00
56681;BME280;42558;52.388;13.390;2023-11-21T03:52:40;100565.05;;;4.36;100.00
56681;BME280;42558;52.388;13.390;2023-11-21T03:55:09;100568.45;;;4.34;100.00
56681;BME280;42558;52.388;13.390;2023-11-21T03:57:40;100578.00;;;4.38;100.00
56681;BME280;42558;52.388;13.390;2023-11-21T04:00:09;100577.64;;;4.38;100.00
56681;BME280;42558;52.388;13.390;2023-11-21T04:02:39;100579.48;;;4.40;100.00
56681;BME280;42558;52.388;13.390;2023-11-21T04:05:10;100582.80;;;4.41;100.00
56681;BME280;42558;52.388;13.390;2023-11-21T04:07:40;100579.71;;;4.37;100.00
56681;BME280;42558;52.388;13.390;2023-11-21T04:10:10;100582.19;;;4.34;100.00
56681;BME280;42558;52.388;13.390;2023-11-21T04:12:42;100583.66;;;4.35;100.00
56681;BME280;42558;52.388;13.390;2023-11-21T04:15:12;100582.06;;;4.40;100.00
56681;BME280;42558;52.388;13.390;2023-11-21T04:17:43;100583.76;;;4.34;100.00
56681;BME280;42558;52.388;13.390;2023-11-21T04:20:15;100583.82;;;4.26;100.00
56681;BME280;42558;52.388;13.390;2023-11-21T04:22:45;100585.67;;;4.24;100.00
56681;BME280;42558;52.388;13.390;2023-11-21T04:25:15;100590.63;;;4.22;100.00
56681;BME280;42558;52.388;13.390;2023-11-21T04:27:46;100602.39;;;4.20;100.00
56681;BME280;42558;52.388;13.390;2023-11-21T04:30:15;100605.91;;;4.16;100.00
56681;BME280;42558;52.388;13.390;2023-11-21T04:32:42;100610.20;;;4.14;100.00
56681;BME280;42558;52.388;13.390;2023-11-21T04:35:11;100617.00;;;4.15;100.00
56681;BME280;42558;52.388;13.390;2023-11-21T04:37:39;100623.75;;;4.14;100.00
56681;BME280;42558;52.388;13.390;2023-11-21T04:40:11;100630.09;;;4.06;100.00
56681;BME280;42558;52.388;13.390;2023-11-21T04:42:39;100629.52;;;4.05;100.00
56681;BME280;42558;52.388;13.390;2023-11-21T04:45:09;100632.99;;;4.00;100.00
56681;BME280;42558;52.388;13.390;2023-11-21T04:47:39;100630.63;;;3.93;100.00
56681;BME280;42558;52.388;13.390;2023-11-21T04:50:10;100631.20;;;3.90;100.00
56681;BME280;42558;52.388;13.390;2023-11-21T04:52:40;100625.91;;;3.88;100.00
56681;BME280;42558;52.388;13.390;2023-11-21T04:55:09;100636.73;;;3.94;100.00
56681;BME280;42558;52.388;13.390;2023-11-21T04:57:40;100638.84;;;3.85;100.00
56681;BME280;42558;52.388;13.390;2023-11-21T05:00:13;100642.70;;;3.86;100.00
56681;BME280;42558;52.388;13.390;2023-11-21T05:02:44;100641.67;;;3.82;100.00
56681;BME280;42558;52.388;13.390;2023-11-21T05:05:14;100651.62;;;3.83;100.00
56681;BME280;42558;52.388;13.390;2023-11-21T05:07:44;100651.73;;;3.81;100.00
56681;BME280;42558;52.388;13.390;2023-11-21T05:10:14;100654.53;;;3.82;100.00
56681;BME280;42558;52.388;13.390;2023-11-21T05:12:45;100658.11;;;3.80;100.00
56681;BME280;42558;52.388;13.390;2023-11-21T05:15:16;100665.38;;;3.79;100.00
56681;BME280;42558;52.388;13.390;2023-11-21T05:17:47;100671.98;;;3.83;100.00
56681;BME280;42558;52.388;13.390;2023-11-21T05:20:22;100674.34;;;3.81;100.00
56681;BME280;42558;52.388;13.390;2023-11-21T05:22:53;100672.77;;;3.86;100.00
56681;BME280;42558;52.388;13.390;2023-11-21T05:25:23;100675.48;;;3.84;100.00
56681;BME280;42558;52.388;13.390;2023-11-21T05:27:53;100677.68;;;3.78;100.00
56681;BME280;42558;52.388;13.390;2023-11-21T05:30:24;100677.91;;;3.80;100.00
56681;BME280;42558;52.388;13.390;2023-11-21T05:32:54;100680.69;;;3.79;100.00
56681;BME280;42558;52.388;13.390;2023-11-21T05:35:24;100678.45;;;3.80;100.00
56681;BME280;42558;52.388;13.390;2023-11-21T05:37:54;100683.38;;;3.86;100.00
56681;BME280;42558;52.388;13.390;2023-11-21T05:40:24;100691.88;;;3.86;100.00
56681;BME280;42558;52.388;13.390;2023-11-21T05:42:56;100693.93;;;3.84;100.00
56681;BME280;42558;52.388;13.390;2023-11-21T05:45:26;100696.44;;;3.77;100.00
56681;BME280;42558;52.388;13.390;2023-11-21T05:47:56;100701.38;;;3.79;100.00
56681;BME280;42558;52.388;13.390;2023-11-21T05:50:25;100703.17;;;3.76;100.00
56681;BME280;42558;52.388;13.390;2023-11-21T05:52:55;100704.73;;;3.76;100.00
56681;BME280;42558;52.388;13.390;2023-11-21T05:55:25;100708.02;;;3.80;100.00
56681;BME280;42558;52.388;13.390;2023-11-21T05:57:56;100713.10;;;3.81;100.00
56681;BME280;42558;52.388;13.390;2023-11-21T06:00:26;100717.90;;;3.79;100.00
56681;BME280;42558;52.388;13.390;2023-11-21T06:02:57;100723.13;;;3.80;100.00
56681;BME280;42558;52.388;13.390;2023-11-21T06:05:26;100721.48;;;3.78;100.00
56681;BME280;42558;52.388;13.390;2023-11-21T06:07:56;100728.80;;;3.78;100.00
56681;BME280;42558;52.388;13.390;2023-11-21T06:10:26;100727.06;;;3.78;100.00
56681;BME280;42558;52.388;13.390;2023-11-21T06:12:54;100732.62;;;3.78;100.00
56681;BME280;42558;52.388;13.390;2023-11-21T06:15:23;100737.02;;;3.79;100.00
56681;BME280;42558;52.388;13.390;2023-11-21T06:17:51;100742.64;;;3.76;100.00
56681;BME280;42558;52.388;13.390;2023-11-21T06:20:23;100740.20;;;3.76;100.00
56681;BME280;42558;52.388;13.390;2023-11-21T06:22:53;100749.73;;;3.75;100.00
56681;BME280;42558;52.388;13.390;2023-11-21T06:25:23;100752.46;;;3.74;100.00
56681;BME280;42558;52.388;13.390;2023-11-21T06:27:53;100759.51;;;3.72;100.00
56681;BME280;42558;52.388;13.390;2023-11-21T06:30:23;100764.59;;;3.68;100.00
56681;BME280;42558;52.388;13.390;2023-11-21T06:32:53;100765.86;;;3.70;100.00
56681;BME280;42558;52.388;13.390;2023-11-21T06:35:24;100773.27;;;3.77;100.00
56681;BME280;42558;52.388;13.390;2023-11-21T06:37:54;100777.19;;;3.75;100.00
56681;BME280;42558;52.388;13.390;2023-11-21T06:40:24;100780.05;;;3.77;100.00
56681;BME280;42558;52.388;13.390;2023-11-21T06:42:54;100784.13;;;3.70;100.00
56681;BME280;42558;52.388;13.390;2023-11-21T06:45:25;100788.39;;;3.60;100.00
56681;BME280;42558;52.388;13.390;2023-11-21T06:47:55;100788.00;;;3.63;100.00
56681;BME280;42558;52.388;13.390;2023-11-21T06:50:25;100795.20;;;3.65;100.00
56681;BME280;42558;52.388;13.390;2023-11-21T06:52:55;100790.41;;;3.63;100.00
56681;BME280;42558;52.388;13.390;2023-11-21T06:55:25;100795.10;;;3.63;100.00
56681;BME280;42558;52.388;13.390;2023-11-21T06:57:55;100797.94;;;3.64;100.00
56681;BME280;42558;52.388;13.390;2023-11-21T07:00:25;100799.58;;;3.61;100.00
56681;BME280;42558;52.388;13.390;2023-11-21T07:02:55;100807.23;;;3.62;100.00
56681;BME280;42558;52.388;13.390;2023-11-21T07:05:25;100808.79;;;3.62;100.00
56681;BME280;42558;52.388;13.390;2023-11-21T07:07:55;100807.98;;;3.63;100.00
56681;BME280;42558;52.388;13.390;2023-11-21T07:10:25;100811.77;;;3.62;100.00
56681;BME280;42558;52.388;13.390;2023-11-21T07:12:56;100813.73;;;3.63;100.00
56681;BME280;42558;52.388;13.390;2023-11-21T07:15:24;100814.59;;;3.63;100.00
56681;BME280;42558;52.388;13.390;2023-11-21T07:17:53;100816.52;;;3.63;100.00
56681;BME280;42558;52.388;13.390;2023-11-21T07:20:21;100819.55;;;3.69;100.00
56681;BME280;42558;52.388;13.390;2023-11-21T07:22:49;100822.88;;;3.66;100.00
56681;BME280;42558;52.388;13.390;2023-11-21T07:25:18;100822.13;;;3.65;100.00
56681;BME280;42558;52.388;13.390;2023-11-21T07:27:46;100828.31;;;3.59;100.00
56681;BME280;42558;52.388;13.390;2023-11-21T07:30:15;100832.68;;;3.55;100.00
56681;BME280;42558;52.388;13.390;2023-11-21T07:32:43;100835.60;;;3.46;100.00
56681;BME280;42558;52.388;13.390;2023-11-21T07:35:15;100833.71;;;3.42;100.00
56681;BME280;42558;52.388;13.390;2023-11-21T07:37:43;100833.02;;;3.47;100.00
56681;BME280;42558;52.388;13.390;2023-11-21T07:40:12;100833.40;;;3.47;100.00
56681;BME280;42558;52.388;13.390;2023-11-21T07:42:43;100837.73;;;3.47;100.00
56681;BME280;42558;52.388;13.390;2023-11-21T07:45:12;100842.55;;;3.46;100.00
56681;BME280;42558;52.388;13.390;2023-11-21T07:47:40;100845.75;;;3.47;100.00
56681;BME280;42558;52.388;13.390;2023-11-21T07:50:09;100844.16;;;3.47;100.00
56681;BME280;42558;52.388;13.390;2023-11-21T07:52:37;100845.34;;;3.46;100.00
56681;BME280;42558;52.388;13.390;2023-11-21T07:55:06;100843.29;;;3.43;100.00
56681;BME280;42558;52.388;13.390;2023-11-21T07:57:37;100846.11;;;3.44;100.00
56681;BME280;42558;52.388;13.390;2023-11-21T08:00:09;100846.85;;;3.41;100.00
56681;BME280;42558;52.388;13.390;2023-11-21T08:02:42;100854.10;;;3.44;100.00
56681;BME280;42558;52.388;13.390;2023-11-21T08:05:13;100855.31;;;3.44;100.00
56681;BME280;42558;52.388;13.390;2023-11-21T08:07:52;100862.74;;;3.43;100.00
56681;BME280;42558;52.388;13.390;2023-11-21T08:10:21;100865.32;;;3.38;100.00
56681;BME280;42558;52.388;13.390;2023-11-21T08:12:49;100867.97;;;3.35;100.00
56681;BME280;42558;52.388;13.390;2023-11-21T08:15:18;100872.94;;;3.38;100.00
56681;BME280;42558;52.388;13.390;2023-11-21T08:17:47;100875.90;;;3.34;100.00
56681;BME280;42558;52.388;13.390;2023-11-21T08:20:18;100881.33;;;3.31;100.00
56681;BME280;42558;52.388;13.390;2023-11-21T08:22:46;100888.90;;;3.34;100.00
56681;BME280;42558;52.388;13.390;2023-11-21T08:25:18;100887.42;;;3.27;100.00
56681;BME280;42558;52.388;13.390;2023-11-21T08:27:50;100892.51;;;3.32;100.00
56681;BME280;42558;52.388;13.390;2023-11-21T08:30:19;100891.33;;;3.33;100.00
56681;BME280;42558;52.388;13.390;2023-11-21T08:32:52;100892.70;;;3.37;100.00
56681;BME280;42558;52.388;13.390;2023-11-21T08:35:24;100889.41;;;3.33;100.00
56681;BME280;42558;52.388;13.390;2023-11-21T08:37:54;100891.71;;;3.34;100.00
56681;BME280;42558;52.388;13.390;2023-11-21T08:40:24;100893.81;;;3.35;100.00
56681;BME280;42558;52.388;13.390;2023-11-21T08:42:55;100893.26;;;3.30;100.00
56681;BME280;42558;52.388;13.390;2023-11-21T08:45:25;100901.07;;;3.30;100.00
56681;BME280;42558;52.388;13.390;2023-11-21T08:47:58;100904.27;;;3.32;100.00
56681;BME280;42558;52.388;13.390;2023-11-21T08:50:28;100907.10;;;3.32;100.00
56681;BME280;42558;52.388;13.390;2023-11-21T08:52:58;100910.88;;;3.35;100.00
56681;BME280;42558;52.388;13.390;2023-11-21T08:55:28;100909.65;;;3.31;100.00
56681;BME280;42558;52.388;13.390;2023-11-21T08:57:58;100917.23;;;3.30;100.00
56681;BME280;42558;52.388;13.390;2023-11-21T09:00:32;100923.08;;;3.24;100.00
56681;BME280;42558;52.388;13.390;2023-11-21T09:03:03;100923.64;;;3.25;100.00
56681;BME280;42558;52.388;13.390;2023-11-21T09:05:38;100924.27;;;3.28;100.00
56681;BME280;42558;52.388;13.390;2023-11-21T09:08:09;100929.50;;;3.24;100.00
56681;BME280;42558;52.388;13.390;2023-11-21T09:10:39;100935.45;;;3.29;100.00
56681;BME280;42558;52.388;13.390;2023-11-21T09:13:09;100936.95;;;3.35;100.00
56681;BME280;42558;52.388;13.390;2023-11-21T09:15:39;100938.23;;;3.41;100.00
56681;BME280;42558;52.388;13.390;2023-11-21T09:18:10;100947.14;;;3.53;100.00
56681;BME280;42558;52.388;13.390;2023-11-21T09:20:40;100952.25;;;3.63;100.00
56681;BME280;42558;52.388;13.390;2023-11-21T09:23:11;100956.29;;;3.64;100.00
56681;BME280;42558;52.388;13.390;2023-11-21T09:25:41;100956.30;;;3.52;100.00
56681;BME280;42558;52.388;13.390;2023-11-21T09:28:10;100965.60;;;3.46;100.00
56681;BME280;42558;52.388;13.390;2023-11-21T09:30:38;100971.48;;;3.45;100.00
56681;BME280;42558;52.388;13.390;2023-11-21T09:33:07;100970.85;;;3.43;100.00
56681;BME280;42558;52.388;13.390;2023-11-21T09:35:38;100968.70;;;3.38;100.00
56681;BME280;42558;52.388;13.390;2023-11-21T09:38:06;100982.16;;;3.36;100.00
56681;BME280;42558;52.388;13.390;2023-11-21T09:40:41;100984.27;;;3.33;100.00
56681;BME280;42558;52.388;13.390;2023-11-21T09:43:20;100986.78;;;3.38;100.00
56681;BME280;42558;52.388;13.390;2023-11-21T09:45:59;100984.36;;;3.31;100.00
56681;BME280;42558;52.388;13.390;2023-11-21T09:48:32;100990.08;;;3.27;100.00
56681;BME280;42558;52.388;13.390;2023-11-21T09:51:04;100995.06;;;3.25;100.00
56681;BME280;42558;52.388;13.390;2023-11-21T09:53:36;100993.61;;;3.28;100.00
56681;BME280;42558;52.388;13.390;2023-11-21T09:56:07;100992.38;;;3.32;100.00
56681;BME280;42558;52.388;13.390;2023-11-21T09:58:38;100998.50;;;3.40;100.00
56681;BME280;42558;52.388;13.390;2023-11-21T10:01:07;100999.86;;;3.39;100.00
56681;BME280;42558;52.388;13.390;2023-11-21T10:03:36;101009.63;;;3.36;100.00
56681;BME280;42558;52.388;13.390;2023-11-21T10:06:08;101010.39;;;3.34;100.00
56681;BME280;42558;52.388;13.390;2023-11-21T10:08:41;101011.73;;;3.33;100.00
56681;BME280;42558;52.388;13.390;2023-11-21T10:11:25;101010.27;;;3.39;100.00
56681;BME280;42558;52.388;13.390;2023-11-21T10:13:59;101005.70;;;3.49;100.00
56681;BME280;42558;52.388;13.390;2023-11-21T10:16:31;101001.54;;;3.57;100.00
56681;BME280;42558;52.388;13.390;2023-11-21T10:19:02;100999.64;;;3.61;100.00
56681;BME280;42558;52.388;13.390;2023-11-21T10:21:40;101005.08;;;3.59;100.00
56681;BME280;42558;52.388;13.390;2023-11-21T10:24:10;101004.73;;;3.54;100.00
56681;BME280;42558;52.388;13.390;2023-11-21T10:26:42;101008.80;;;3.48;100.00
56681;BME280;42558;52.388;13.390;2023-11-21T10:29:22;101010.73;;;3.41;100.00
56681;BME280;42558;52.388;13.390;2023-11-21T10:31:52;101013.70;;;3.38;100.00
56681;BME280;42558;52.388;13.390;2023-11-21T10:34:25;101013.83;;;3.33;100.00
56681;BME280;42558;52.388;13.390;2023-11-21T10:36:57;101021.17;;;3.34;100.00
56681;BME280;42558;52.388;13.390;2023-11-21T10:39:28;101025.86;;;3.34;100.00
56681;BME280;42558;52.388;13.390;2023-11-21T10:42:00;101027.39;;;3.33;100.00
56681;BME280;42558;52.388;13.390;2023-11-21T10:44:30;101026.86;;;3.40;100.00
56681;BME280;42558;52.388;13.390;2023-11-21T10:47:01;101027.10;;;3.42;100.00
56681;BME280;42558;52.388;13.390;2023-11-21T10:49:32;101031.83;;;3.32;100.00
56681;BME280;42558;52.388;13.390;2023-11-21T10:52:03;101033.30;;;3.41;100.00
56681;BME280;42558;52.388;13.390;2023-11-21T10:54:33;101040.49;;;3.46;100.00
56681;BME280;42558;52.388;13.390;2023-11-21T10:57:06;101035.38;;;3.40;100.00
56681;BME280;42558;52.388;13.390;2023-11-21T10:59:38;101037.65;;;3.37;100.00
56681;BME280;42558;52.388;13.390;2023-11-21T11:02:23;101045.14;;;3.30;100.00
56681;BME280;42558;52.388;13.390;2023-11-21T11:05:03;101045.09;;;3.18;100.00
56681;BME280;42558;52.388;13.390;2023-11-21T11:07:31;101043.09;;;3.20;100.00
56681;BME280;42558;52.388;13.390;2023-11-21T11:10:04;101049.04;;;3.24;100.00
56681;BME280;42558;52.388;13.390;2023-11-21T11:12:41;101048.39;;;3.25;100.00
56681;BME280;42558;52.388;13.390;2023-11-21T11:15:11;101058.77;;;3.24;100.00
56681;BME280;42558;52.388;13.390;2023-11-21T11:17:41;101050.03;;;3.23;100.00
56681;BME280;42558;52.388;13.390;2023-11-21T11:20:13;101053.91;;;3.25;100.00
56681;BME280;42558;52.388;13.390;2023-11-21T11:28:59;101059.10;;;3.21;100.00
56681;BME280;42558;52.388;13.390;2023-11-21T11:34:32;101065.80;;;3.15;100.00
56681;BME280;42558;52.388;13.390;2023-11-21T11:37:06;101078.66;;;3.19;100.00
56681;BME280;42558;52.388;13.390;2023-11-21T11:39:42;101080.60;;;3.23;100.00
56681;BME280;42558;52.388;13.390;2023-11-21T11:42:17;101085.30;;;3.16;100.00
56681;BME280;42558;52.388;13.390;2023-11-21T11:44:48;101085.02;;;3.18;100.00
56681;BME280;42558;52.388;13.390;2023-11-21T11:47:28;101085.52;;;3.10;100.00
56681;BME280;42558;52.388;13.390;2023-11-21T11:50:12;101092.70;;;3.15;100.00
56681;BME280;42558;52.388;13.390;2023-11-21T11:52:51;101098.67;;;3.13;100.00
56681;BME280;42558;52.388;13.390;2023-11-21T11:55:24;101096.06;;;3.13;100.00
56681;BME280;42558;52.388;13.390;2023-11-21T11:57:55;101101.73;;;3.15;100.00
56681;BME280;42558;52.388;13.390;2023-11-21T12:03:01;101110.21;;;3.04;100.00
56681;BME280;42558;52.388;13.390;2023-11-21T12:05:35;101114.75;;;2.93;100.00
56681;BME280;42558;52.388;13.390;2023-11-21T12:08:07;101117.94;;;2.88;100.00
56681;BME280;42558;52.388;13.390;2023-11-21T12:10:39;101119.71;;;2.89;100.00
56681;BME280;42558;52.388;13.390;2023-11-21T12:13:11;101124.85;;;2.80;100.00
56681;BME280;42558;52.388;13.390;2023-11-21T12:15:40;101129.56;;;2.84;100.00
56681;BME280;42558;52.388;13.390;2023-11-21T12:18:11;101133.85;;;2.87;100.00
56681;BME280;42558;52.388;13.390;2023-11-21T12:20:40;101139.27;;;2.84;100.00
56681;BME280;42558;52.388;13.390;2023-11-21T12:23:11;101139.98;;;2.78;100.00
56681;BME280;42558;52.388;13.390;2023-11-21T12:25:44;101139.38;;;2.73;100.00
56681;BME280;42558;52.388;13.390;2023-11-21T12:28:14;101144.56;;;2.72;100.00
56681;BME280;42558;52.388;13.390;2023-11-21T12:30:44;101148.38;;;2.72;100.00
56681;BME280;42558;52.388;13.390;2023-11-21T12:33:14;101154.06;;;2.71;100.00
56681;BME280;42558;52.388;13.390;2023-11-21T12:35:46;101152.47;;;2.70;100.00
56681;BME280;42558;52.388;13.390;2023-11-21T12:38:16;101162.66;;;2.73;100.00
56681;BME280;42558;52.388;13.390;2023-11-21T12:40:47;101160.08;;;2.70;100.00
56681;BME280;42558;52.388;13.390;2023-11-21T12:43:17;101168.25;;;2.73;100.00
56681;BME280;42558;52.388;13.390;2023-11-21T12:45:47;101167.27;;;2.71;100.00
56681;BME280;42558;52.388;13.390;2023-11-21T12:48:17;101172.13;;;2.81;100.00
56681;BME280;42558;52.388;13.390;2023-11-21T12:50:53;101173.60;;;2.83;100.00
56681;BME280;42558;52.388;13.390;2023-11-21T12:53:21;101170.25;;;2.75;100.00
56681;BME280;42558;52.388;13.390;2023-11-21T12:55:49;101170.33;;;2.70;100.00
56681;BME280;42558;52.388;13.390;2023-11-21T12:58:24;101173.41;;;2.72;100.00
56681;BME280;42558;52.388;13.390;2023-11-21T13:00:52;101173.30;;;2.67;100.00
56681;BME280;42558;52.388;13.390;2023-11-21T13:03:25;101177.52;;;2.71;100.00
56681;BME280;42558;52.388;13.390;2023-11-21T13:05:55;101182.79;;;2.66;100.00
56681;BME280;42558;52.388;13.390;2023-11-21T13:08:26;101185.69;;;2.68;100.00